Penetanguishene, Canada
Current Conditions -  °F | °C
As of 10:34 PM on Monday 22 Dec 2014 (Local Time) from CYQA Reporting Station
Broken Clouds Broken Clouds  
Wind Chill: 21°   Ceiling: 1100
Heat Index: 28°   Visibility: 9mi
Dew Point: 25°   Wind: 7mph
Humidity: 86%   Direction: 110°ESE
Pressure: 30.04"   Gusts: NA
Location:  44.77°N, 79.93°W
Report Text: CYQA 230334Z AUTO 11006KT 070V150 9SM BKN011 BKN220 M02/M04 A3004 RMK SLP189
Loading
Personal Weather Stations






























Interactive Weather Map New forecast layout! Learn more

10-Day Weather Forecast

Advertisements
Track Severe Weather on mobile